createdAt,value
2023-02-20T00:03:00.892Z,5.08
2023-02-20T00:08:02.761Z,5.12
2023-02-20T00:13:04.672Z,5.16
2023-02-20T00:18:07.590Z,5.18
2023-02-20T00:23:09.750Z,5.19
2023-02-20T00:28:11.642Z,5.19
2023-02-20T00:33:14.126Z,5.19
2023-02-20T00:38:16.831Z,5.22
2023-02-20T00:43:18.703Z,5.23
2023-02-20T00:48:20.622Z,5.26
2023-02-20T00:53:22.424Z,5.29
2023-02-20T00:58:24.310Z,5.31
2023-02-20T01:03:26.222Z,5.32
2023-02-20T01:08:28.161Z,5.35
2023-02-20T01:13:32.259Z,5.37
2023-02-20T01:18:34.206Z,5.42
2023-02-20T01:23:37.849Z,5.44
2023-02-20T01:28:39.702Z,5.48
2023-02-20T01:33:43.427Z,5.53
2023-02-20T01:38:46.257Z,5.56
2023-02-20T01:43:48.162Z,5.59
2023-02-20T01:48:52.813Z,5.59
2023-02-20T01:53:54.676Z,5.59
2023-02-20T01:58:56.632Z,5.60
2023-02-20T02:04:04.923Z,5.60
2023-02-20T02:09:36.020Z,5.60
2023-02-20T02:14:37.958Z,5.63
2023-02-20T02:20:17.048Z,5.67
2023-02-20T02:25:27.981Z,5.69
2023-02-20T02:31:07.473Z,5.72
2023-02-20T02:36:41.543Z,5.74
2023-02-20T02:42:02.337Z,5.77
2023-02-20T02:47:20.300Z,5.79
2023-02-20T02:52:46.678Z,5.84
2023-02-20T02:57:48.699Z,5.83
2023-02-20T03:02:58.234Z,5.86
2023-02-20T03:08:00.310Z,5.88
2023-02-20T03:13:05.600Z,5.90
2023-02-20T03:18:18.099Z,5.94
2023-02-20T03:23:34.602Z,5.95
2023-02-20T03:28:44.590Z,5.98
2023-02-20T03:34:14.094Z,6.00
2023-02-20T03:39:42.643Z,6.01
2023-02-20T03:44:47.107Z,6.01
2023-02-20T03:49:54.707Z,6.00
2023-02-20T03:54:57.660Z,6.03
2023-02-20T04:00:11.053Z,6.05
2023-02-20T04:05:23.158Z,6.04
2023-02-20T04:10:31.197Z,6.05
2023-02-20T04:15:34.419Z,6.06
2023-02-20T04:20:37.423Z,6.09
2023-02-20T04:26:01.661Z,6.10
2023-02-20T04:31:06.933Z,6.11
2023-02-20T04:36:11.683Z,6.13
2023-02-20T04:41:14.350Z,6.15
2023-02-20T04:46:17.717Z,6.17
2023-02-20T04:51:19.909Z,6.17
2023-02-20T04:56:23.179Z,6.21
2023-02-20T05:01:25.432Z,6.24
2023-02-20T05:06:30.812Z,6.27
2023-02-20T05:11:32.705Z,6.30
2023-02-20T05:16:34.594Z,6.35
2023-02-20T05:21:54.930Z,6.38
2023-02-20T05:26:57.129Z,6.42
2023-02-20T05:31:59.356Z,6.45
2023-02-20T05:37:01.198Z,6.46
2023-02-20T05:42:03.153Z,6.47
2023-02-20T05:47:07.705Z,6.49
2023-02-20T05:52:13.048Z,6.51
2023-02-20T05:57:15.332Z,6.50
2023-02-20T06:02:17.298Z,6.50
2023-02-20T06:07:19.174Z,6.50
2023-02-20T06:12:21.000Z,6.52
2023-02-20T06:17:22.842Z,6.53
2023-02-20T06:22:24.748Z,6.54
2023-02-20T06:27:27.076Z,6.57
2023-02-20T06:32:29.177Z,6.59
2023-02-20T06:37:30.980Z,6.62
2023-02-20T06:42:32.771Z,6.65
2023-02-20T06:47:34.662Z,6.68
2023-02-20T06:52:37.768Z,6.71
2023-02-20T06:57:39.833Z,6.71
2023-02-20T07:02:42.176Z,6.71
2023-02-20T07:07:44.960Z,6.72
2023-02-20T07:12:47.283Z,6.73
2023-02-20T07:17:49.144Z,6.76
2023-02-20T07:22:57.413Z,6.80
2023-02-20T07:27:59.293Z,6.86
2023-02-20T07:33:01.590Z,6.92
2023-02-20T07:38:03.783Z,6.96
2023-02-20T07:43:05.701Z,7.01
2023-02-20T07:48:12.924Z,7.05
2023-02-20T07:53:17.462Z,7.09
2023-02-20T07:58:19.480Z,7.14
2023-02-20T08:03:21.433Z,7.19
2023-02-20T08:08:24.881Z,7.21
2023-02-20T08:13:27.276Z,7.25
2023-02-20T08:18:29.203Z,7.26
2023-02-20T08:23:31.087Z,7.29
2023-02-20T08:28:34.513Z,7.35
2023-02-20T08:33:36.844Z,7.44
2023-02-20T08:38:39.382Z,7.51
2023-02-20T08:43:44.365Z,7.57
2023-02-20T08:48:46.420Z,7.72
2023-02-20T08:53:48.398Z,7.85
2023-02-20T09:04:10.972Z,8.00
2023-02-20T09:09:13.014Z,8.12
2023-02-20T09:14:15.458Z,8.22
2023-02-20T09:19:18.452Z,8.33
2023-02-20T09:24:20.447Z,8.41
2023-02-20T09:29:22.795Z,8.51
2023-02-20T09:34:25.540Z,8.62
2023-02-20T09:39:29.019Z,8.73
2023-02-20T09:44:45.004Z,8.81
2023-02-20T09:49:47.543Z,8.87
2023-02-20T09:54:58.911Z,8.94
2023-02-20T10:00:06.664Z,9.01
2023-02-20T10:05:19.503Z,9.11
2023-02-20T10:10:39.521Z,9.17
2023-02-20T10:16:18.907Z,9.25
2023-02-20T10:21:33.025Z,9.34
2023-02-20T10:26:40.388Z,9.41
2023-02-20T10:31:48.321Z,9.52
2023-02-20T10:36:56.653Z,9.62
2023-02-20T10:42:00.683Z,9.73
2023-02-20T10:47:09.758Z,9.78
2023-02-20T10:52:31.741Z,9.82
2023-02-20T10:57:46.619Z,9.89
2023-02-20T11:02:57.910Z,9.96
2023-02-20T11:08:00.068Z,10.04
2023-02-20T11:13:02.965Z,10.07
2023-02-20T11:18:21.056Z,10.11
2023-02-20T11:23:41.625Z,10.16
2023-02-20T11:28:43.826Z,10.21
2023-02-20T11:33:48.141Z,10.26
2023-02-20T11:39:01.310Z,10.30
2023-02-20T11:44:13.389Z,10.31
2023-02-20T11:49:28.405Z,10.34
2023-02-20T11:54:32.353Z,10.36
2023-02-20T11:59:44.988Z,10.46
2023-02-20T12:05:04.871Z,10.55
2023-02-20T12:10:44.017Z,10.64
2023-02-20T12:15:59.552Z,10.71
2023-02-20T12:21:05.682Z,10.78
2023-02-20T12:26:38.523Z,10.92
2023-02-20T12:31:52.747Z,11.08
2023-02-20T12:37:27.705Z,11.21
2023-02-20T12:42:41.535Z,11.30
2023-02-20T12:47:46.045Z,11.34
2023-02-20T12:52:56.845Z,11.34
2023-02-20T12:58:26.504Z,11.34
2023-02-20T13:03:31.687Z,11.32
2023-02-20T13:08:43.520Z,11.31
2023-02-20T13:13:56.993Z,11.29
2023-02-20T13:19:03.554Z,11.29
2023-02-20T13:24:20.579Z,11.28
2023-02-20T13:29:28.221Z,11.26
2023-02-20T13:34:32.890Z,11.24
2023-02-20T13:39:38.071Z,11.23
2023-02-20T13:44:39.913Z,11.22
2023-02-20T13:49:44.765Z,11.23
2023-02-20T13:54:46.977Z,11.22
2023-02-20T13:59:51.360Z,11.22
2023-02-20T14:04:56.147Z,11.26
2023-02-20T14:10:03.865Z,11.30
2023-02-20T14:15:07.210Z,11.33
2023-02-20T14:20:22.976Z,11.35
2023-02-20T14:25:30.513Z,11.41
2023-02-20T14:30:32.921Z,11.48
2023-02-20T14:36:02.714Z,11.55
2023-02-20T14:41:13.872Z,11.58
2023-02-20T14:46:24.603Z,11.61
2023-02-20T14:51:26.529Z,11.59
2023-02-20T14:56:29.587Z,11.55
2023-02-20T15:01:39.234Z,11.52
2023-02-20T15:06:44.572Z,11.50
2023-02-20T15:11:58.016Z,11.49
2023-02-20T15:17:31.583Z,11.48
2023-02-20T15:22:39.616Z,11.46
2023-02-20T15:28:19.688Z,11.44
2023-02-20T15:33:21.867Z,11.40
2023-02-20T15:38:30.474Z,11.37
2023-02-20T15:43:45.865Z,11.34
2023-02-20T15:48:49.894Z,11.31
2023-02-20T15:53:53.559Z,11.29
2023-02-20T15:58:57.018Z,11.25
2023-02-20T16:03:59.574Z,11.21
2023-02-20T16:09:01.570Z,11.17
2023-02-20T16:14:03.776Z,11.15
2023-02-20T16:19:16.964Z,11.09
2023-02-20T16:24:18.982Z,11.06
2023-02-20T16:29:32.521Z,11.03
2023-02-20T16:34:35.386Z,11.02
2023-02-20T16:39:37.902Z,11.02
2023-02-20T16:44:47.051Z,11.02
2023-02-20T16:49:49.618Z,11.01
2023-02-20T16:54:53.255Z,11.00
2023-02-20T16:59:58.800Z,11.00
2023-02-20T17:05:01.116Z,11.03
2023-02-20T17:10:05.448Z,11.05
2023-02-20T17:15:09.471Z,11.06
2023-02-20T17:20:20.719Z,11.10
2023-02-20T17:25:26.972Z,11.08
2023-02-20T17:30:29.078Z,11.10
2023-02-20T17:35:30.972Z,11.12
2023-02-20T17:40:33.213Z,11.14
2023-02-20T17:45:35.194Z,11.14
2023-02-20T17:50:37.069Z,11.15
2023-02-20T17:55:39.078Z,11.16
2023-02-20T18:00:40.984Z,11.17
2023-02-20T18:05:42.965Z,11.19
2023-02-20T18:10:44.808Z,11.22
2023-02-20T18:15:46.983Z,11.21
2023-02-20T18:20:49.390Z,11.21
2023-02-20T18:25:51.822Z,11.19
2023-02-20T18:30:53.703Z,11.17
2023-02-20T18:36:19.809Z,11.13
2023-02-20T18:41:17.634Z,11.00
2023-02-20T18:46:31.169Z,10.83
2023-02-20T18:51:36.245Z,10.68
2023-02-20T18:56:39.151Z,10.57
2023-02-20T19:01:42.372Z,10.52
2023-02-20T19:06:45.045Z,10.47
2023-02-20T19:11:57.172Z,10.43
2023-02-20T19:17:01.551Z,10.40
2023-02-20T19:22:04.780Z,10.37
2023-02-20T19:27:06.641Z,10.35
2023-02-20T19:32:08.535Z,10.34
2023-02-20T19:37:14.157Z,10.34
2023-02-20T19:42:17.195Z,10.36
2023-02-20T19:47:19.567Z,10.38
2023-02-20T19:52:21.568Z,10.39
2023-02-20T19:57:24.341Z,10.41
2023-02-20T20:02:26.422Z,10.38
2023-02-20T20:07:28.831Z,10.34
2023-02-20T20:12:48.825Z,10.32
2023-02-20T20:17:56.617Z,10.33
2023-02-20T20:23:01.389Z,10.38
2023-02-20T20:28:05.028Z,10.37
2023-02-20T20:33:08.465Z,10.37
2023-02-20T20:38:10.393Z,10.37
2023-02-20T20:43:16.375Z,10.38
2023-02-20T20:48:19.320Z,10.40
2023-02-20T20:53:21.234Z,10.40
2023-02-20T20:58:23.013Z,10.40
2023-02-20T21:03:25.571Z,10.38
2023-02-20T21:08:27.536Z,10.35
2023-02-20T21:13:29.624Z,10.30
2023-02-20T21:18:31.390Z,10.28
2023-02-20T21:23:33.284Z,10.27
2023-02-20T21:28:35.138Z,10.26
2023-02-20T21:33:37.003Z,10.25
2023-02-20T21:38:38.760Z,10.28
2023-02-20T21:44:09.814Z,10.27
2023-02-20T21:49:11.691Z,10.28
2023-02-20T21:54:15.045Z,10.27
2023-02-20T21:59:16.967Z,10.26
2023-02-20T22:04:19.943Z,10.25
2023-02-20T22:09:40.256Z,10.23
2023-02-20T22:15:00.718Z,10.23
2023-02-20T22:20:21.637Z,10.21
2023-02-20T22:25:42.328Z,10.20
2023-02-20T22:31:02.736Z,10.20
2023-02-20T22:36:23.373Z,10.20
2023-02-20T22:41:43.651Z,10.18
2023-02-20T22:47:03.920Z,10.16
2023-02-20T22:52:24.241Z,10.15
2023-02-20T22:57:44.449Z,10.13
2023-02-20T23:03:07.647Z,10.11
2023-02-20T23:08:28.095Z,10.11
2023-02-20T23:13:48.674Z,10.11
2023-02-20T23:19:09.350Z,10.08
2023-02-20T23:24:29.921Z,10.06
2023-02-20T23:29:50.343Z,10.05
2023-02-20T23:35:11.590Z,10.05
2023-02-20T23:40:36.728Z,10.01
2023-02-20T23:45:57.332Z,9.98
2023-02-20T23:51:17.965Z,9.95
2023-02-20T23:56:38.150Z,9.91
